createdAt,value
2023-03-06T00:00:25.172Z,12.50
2023-03-06T00:02:52.331Z,15.00
2023-03-06T00:05:19.612Z,17.40
2023-03-06T00:07:46.281Z,16.70
2023-03-06T00:10:18.980Z,15.50
2023-03-06T00:12:46.064Z,15.60
2023-03-06T00:15:14.007Z,16.60
2023-03-06T00:17:41.514Z,15.50
2023-03-06T00:20:11.818Z,18.40
2023-03-06T00:22:39.036Z,16.80
2023-03-06T00:25:07.158Z,14.70
2023-03-06T00:27:34.037Z,15.40
2023-03-06T00:30:01.221Z,16.60
2023-03-06T00:32:28.913Z,15.60
2023-03-06T00:34:56.465Z,15.70
2023-03-06T00:37:24.444Z,13.10
2023-03-06T00:39:51.641Z,14.50
2023-03-06T00:42:19.325Z,15.30
2023-03-06T00:44:46.399Z,16.00
2023-03-06T00:47:14.012Z,15.80
2023-03-06T00:49:40.597Z,13.40
2023-03-06T00:52:07.250Z,14.90
2023-03-06T00:54:33.865Z,14.20
2023-03-06T00:57:00.516Z,15.00
2023-03-06T00:59:28.103Z,15.40
2023-03-06T01:01:55.299Z,13.80
2023-03-06T01:04:22.410Z,13.30
2023-03-06T01:06:49.344Z,13.00
2023-03-06T01:09:16.176Z,13.40
2023-03-06T01:11:43.065Z,13.30
2023-03-06T01:14:10.882Z,13.20
2023-03-06T01:16:37.591Z,13.90
2023-03-06T01:19:04.540Z,14.30
2023-03-06T01:21:31.190Z,14.10
2023-03-06T01:23:58.617Z,14.30
2023-03-06T01:26:25.316Z,14.90
2023-03-06T01:28:51.960Z,15.90
2023-03-06T01:31:18.685Z,15.50
2023-03-06T01:33:45.276Z,16.70
2023-03-06T01:36:13.332Z,14.80
2023-03-06T01:38:40.021Z,16.20
2023-03-06T01:41:06.898Z,15.10
2023-03-06T01:43:39.467Z,15.60
2023-03-06T01:46:41.923Z,14.90
2023-03-06T01:49:18.503Z,14.30
2023-03-06T01:52:03.565Z,14.10
2023-03-06T01:54:45.021Z,13.60
2023-03-06T01:57:15.315Z,13.90
2023-03-06T01:59:43.245Z,13.00
2023-03-06T02:02:12.577Z,13.70
2023-03-06T02:04:42.461Z,13.00
2023-03-06T02:07:10.497Z,14.60
2023-03-06T02:09:38.664Z,13.20
2023-03-06T02:12:12.869Z,13.80
2023-03-06T02:14:41.332Z,12.60
2023-03-06T02:17:10.187Z,12.50
2023-03-06T02:20:00.248Z,13.40
2023-03-06T02:22:37.732Z,14.80
2023-03-06T02:25:14.109Z,14.20
2023-03-06T02:27:41.108Z,12.90
2023-03-06T02:30:09.360Z,15.70
2023-03-06T02:32:36.361Z,12.10
2023-03-06T02:35:04.080Z,13.80
2023-03-06T02:37:30.733Z,13.30
2023-03-06T02:40:06.209Z,12.70
2023-03-06T02:42:32.870Z,13.30
2023-03-06T02:45:02.383Z,12.80
2023-03-06T02:47:29.314Z,11.80
2023-03-06T02:49:55.952Z,11.70
2023-03-06T02:52:22.824Z,12.90
2023-03-06T02:54:49.517Z,14.10
2023-03-06T02:57:16.282Z,12.90
2023-03-06T02:59:42.986Z,13.50
2023-03-06T03:02:10.162Z,11.70
2023-03-06T03:04:36.923Z,12.40
2023-03-06T03:07:04.107Z,12.00
2023-03-06T03:09:36.869Z,11.50
2023-03-06T03:12:06.709Z,12.90
2023-03-06T03:14:33.701Z,12.90
2023-03-06T03:17:01.590Z,12.30
2023-03-06T03:19:28.302Z,12.30
2023-03-06T03:21:55.711Z,12.10
2023-03-06T03:24:23.107Z,12.90
2023-03-06T03:26:49.992Z,13.30
2023-03-06T03:29:18.674Z,11.90
2023-03-06T03:31:45.326Z,11.30
2023-03-06T03:34:12.188Z,12.90
2023-03-06T03:36:39.699Z,11.30
2023-03-06T03:39:07.492Z,11.70
2023-03-06T03:41:35.121Z,12.60
2023-03-06T03:44:04.250Z,13.10
2023-03-06T03:46:32.165Z,12.60
2023-03-06T03:49:00.794Z,11.80
2023-03-06T03:51:27.944Z,10.80
2023-03-06T03:53:56.833Z,11.60
2023-03-06T03:56:25.735Z,12.10
2023-03-06T03:58:57.821Z,11.70
2023-03-06T04:01:27.941Z,15.20
2023-03-06T04:03:54.950Z,14.50
2023-03-06T04:06:21.663Z,14.10
2023-03-06T04:08:48.515Z,12.20
2023-03-06T04:11:15.926Z,14.80
2023-03-06T04:13:43.744Z,15.70
2023-03-06T04:16:10.870Z,14.10
2023-03-06T04:18:38.152Z,12.50
2023-03-06T04:21:05.606Z,14.80
2023-03-06T04:23:32.666Z,12.60
2023-03-06T04:25:59.852Z,11.60
2023-03-06T04:28:27.396Z,10.70
2023-03-06T04:30:54.255Z,11.80
2023-03-06T04:33:21.609Z,12.00
2023-03-06T04:35:48.780Z,12.50
2023-03-06T04:38:19.276Z,10.70
2023-03-06T04:40:46.060Z,12.30
2023-03-06T04:45:58.533Z,11.50
2023-03-06T04:48:25.205Z,11.00
2023-03-06T04:50:51.788Z,12.80
2023-03-06T04:53:19.768Z,11.60
2023-03-06T04:55:46.431Z,10.70
2023-03-06T04:58:14.393Z,10.60
2023-03-06T05:00:41.095Z,12.60
2023-03-06T05:03:08.994Z,11.30
2023-03-06T05:05:35.694Z,11.40
2023-03-06T05:08:02.286Z,11.20
2023-03-06T05:10:29.324Z,10.20
2023-03-06T05:12:56.004Z,10.00
2023-03-06T05:15:22.651Z,11.10
2023-03-06T05:17:49.275Z,11.00
2023-03-06T05:20:16.737Z,12.20
2023-03-06T05:22:44.869Z,12.50
2023-03-06T05:25:12.041Z,15.00
2023-03-06T05:27:39.140Z,15.60
2023-03-06T05:30:06.969Z,14.00
2023-03-06T05:32:35.582Z,14.90
2023-03-06T05:35:04.026Z,13.70
2023-03-06T05:37:31.410Z,13.00
2023-03-06T05:39:58.549Z,13.20
2023-03-06T05:42:27.596Z,11.90
2023-03-06T05:44:55.162Z,13.40
2023-03-06T05:47:21.817Z,12.10
2023-03-06T05:49:48.752Z,13.20
2023-03-06T05:52:17.658Z,12.10
2023-03-06T05:54:44.661Z,11.70
2023-03-06T05:57:11.352Z,12.90
2023-03-06T05:59:37.942Z,11.70
2023-03-06T06:02:05.683Z,12.80
2023-03-06T06:04:32.649Z,12.00
2023-03-06T06:07:01.164Z,12.90
2023-03-06T06:09:29.031Z,10.90
2023-03-06T06:11:58.649Z,10.00
2023-03-06T06:14:25.727Z,10.50
2023-03-06T06:16:52.946Z,10.20
2023-03-06T06:19:20.456Z,10.40
2023-03-06T06:21:52.926Z,13.00
2023-03-06T06:24:22.568Z,13.10
2023-03-06T06:26:57.674Z,13.50
2023-03-06T06:29:26.066Z,13.90
2023-03-06T06:31:53.609Z,12.10
2023-03-06T06:34:21.641Z,14.80
2023-03-06T06:36:51.594Z,14.00
2023-03-06T06:39:21.747Z,13.20
2023-03-06T06:42:05.485Z,10.30
2023-03-06T06:44:37.693Z,12.20
2023-03-06T06:47:23.723Z,13.30
2023-03-06T06:49:53.116Z,16.90
2023-03-06T06:52:20.056Z,14.40
2023-03-06T06:54:46.845Z,17.20
2023-03-06T06:57:14.754Z,17.30
2023-03-06T06:59:41.627Z,16.50
2023-03-06T07:02:13.897Z,15.50
2023-03-06T07:04:52.284Z,14.60
2023-03-06T07:07:25.341Z,16.40
2023-03-06T07:09:52.221Z,15.00
2023-03-06T07:12:19.069Z,12.00
2023-03-06T07:14:46.939Z,15.50
2023-03-06T07:17:13.532Z,13.80
2023-03-06T07:19:40.336Z,14.40
2023-03-06T07:22:07.753Z,15.20
2023-03-06T07:24:34.737Z,16.10
2023-03-06T07:27:01.373Z,14.80
2023-03-06T07:29:28.110Z,15.50
2023-03-06T07:31:55.054Z,13.80
2023-03-06T07:34:22.457Z,13.40
2023-03-06T07:36:50.853Z,16.10
2023-03-06T07:39:17.708Z,17.50
2023-03-06T07:41:44.455Z,17.20
2023-03-06T07:44:11.129Z,16.70
2023-03-06T07:46:37.993Z,13.90
2023-03-06T07:49:04.664Z,18.40
2023-03-06T07:51:31.305Z,15.80
2023-03-06T07:53:57.938Z,16.90
2023-03-06T07:56:24.635Z,15.00
2023-03-06T07:58:51.278Z,15.10
2023-03-06T08:01:20.901Z,15.50
2023-03-06T08:03:50.265Z,14.00
2023-03-06T08:06:20.513Z,14.20
2023-03-06T08:08:49.052Z,15.00
2023-03-06T08:11:17.804Z,15.20
2023-03-06T08:13:44.939Z,14.70
2023-03-06T08:16:12.158Z,13.00
2023-03-06T08:18:43.679Z,14.80
2023-03-06T08:21:14.947Z,14.20
2023-03-06T08:23:43.798Z,15.50
2023-03-06T08:26:16.290Z,15.40
2023-03-06T08:28:43.891Z,14.10
2023-03-06T08:31:14.200Z,15.30
2023-03-06T08:33:41.229Z,15.00
2023-03-06T08:36:08.040Z,16.30
2023-03-06T08:38:34.664Z,14.70
2023-03-06T08:41:01.627Z,18.30
2023-03-06T08:43:28.466Z,16.60
2023-03-06T08:45:57.385Z,18.00
2023-03-06T08:48:25.139Z,15.90
2023-03-06T08:50:52.177Z,18.40
2023-03-06T08:53:19.328Z,14.90
2023-03-06T08:55:46.367Z,15.10
2023-03-06T08:58:13.635Z,14.60
2023-03-06T09:00:40.427Z,14.80
2023-03-06T09:03:07.202Z,21.30
2023-03-06T09:05:34.473Z,18.30
2023-03-06T09:08:01.142Z,16.30
2023-03-06T09:10:28.175Z,15.40
2023-03-06T09:12:55.516Z,16.90
2023-03-06T09:15:23.704Z,18.00
2023-03-06T09:17:51.152Z,15.60
2023-03-06T09:20:19.211Z,18.20
2023-03-06T09:22:46.382Z,17.40
2023-03-06T09:25:14.258Z,20.60
2023-03-06T09:27:41.643Z,16.80
2023-03-06T09:30:09.552Z,15.10
2023-03-06T09:32:36.202Z,18.80
2023-03-06T09:35:02.895Z,21.30
2023-03-06T09:37:29.882Z,21.70
2023-03-06T09:39:56.572Z,16.50
2023-03-06T09:42:23.829Z,18.20
2023-03-06T09:44:56.381Z,17.10
2023-03-06T09:47:38.329Z,22.60
2023-03-06T09:50:33.332Z,16.50
2023-03-06T09:53:15.403Z,17.80
2023-03-06T09:55:45.350Z,22.50
2023-03-06T09:58:20.193Z,23.50
2023-03-06T10:01:03.954Z,20.50
2023-03-06T10:03:46.945Z,19.50
2023-03-06T10:06:23.992Z,24.80
2023-03-06T10:09:18.784Z,18.60
2023-03-06T10:11:54.552Z,22.40
2023-03-06T10:14:33.229Z,16.30
2023-03-06T10:17:01.008Z,18.00
2023-03-06T10:19:34.525Z,19.90
2023-03-06T10:22:13.854Z,18.80
2023-03-06T10:25:09.618Z,18.20
2023-03-06T10:27:48.278Z,21.90
2023-03-06T10:30:22.669Z,19.40
2023-03-06T10:33:06.368Z,18.20
2023-03-06T10:35:46.928Z,21.10
2023-03-06T10:38:25.841Z,15.30
2023-03-06T10:41:21.513Z,23.30
2023-03-06T10:44:00.217Z,24.90
2023-03-06T10:46:30.026Z,20.10
2023-03-06T10:48:59.493Z,15.80
2023-03-06T10:51:27.459Z,15.10
2023-03-06T10:54:19.173Z,14.90
2023-03-06T10:56:47.174Z,17.30
2023-03-06T10:59:16.318Z,14.90
2023-03-06T11:02:07.871Z,19.10
2023-03-06T11:04:36.449Z,15.10
2023-03-06T11:07:07.194Z,20.40
2023-03-06T11:09:33.870Z,15.60
2023-03-06T11:12:23.062Z,17.30
2023-03-06T11:15:14.740Z,18.30
2023-03-06T11:17:53.483Z,19.80
2023-03-06T11:20:20.308Z,13.10
2023-03-06T11:22:52.128Z,13.90
2023-03-06T11:25:22.124Z,15.90
2023-03-06T11:27:57.720Z,15.50
2023-03-06T11:30:32.461Z,11.90
2023-03-06T11:33:04.532Z,18.10
2023-03-06T11:38:14.175Z,17.70
2023-03-06T11:40:46.370Z,13.00
2023-03-06T11:43:28.044Z,14.70
2023-03-06T11:46:10.810Z,14.20
2023-03-06T11:48:46.433Z,13.10
2023-03-06T11:51:22.742Z,17.50
2023-03-06T11:53:49.597Z,15.80
2023-03-06T11:56:19.351Z,13.50
2023-03-06T11:59:23.632Z,15.80
2023-03-06T12:02:24.795Z,15.30
2023-03-06T12:05:30.793Z,17.40
2023-03-06T12:08:13.096Z,17.30
2023-03-06T12:10:51.878Z,17.80
2023-03-06T12:13:40.110Z,18.30
2023-03-06T12:16:31.465Z,15.10
2023-03-06T12:19:17.678Z,14.90
2023-03-06T12:22:15.982Z,19.30
2023-03-06T12:25:16.870Z,18.20
2023-03-06T12:28:17.874Z,17.40
2023-03-06T12:30:57.068Z,13.60
2023-03-06T12:33:47.467Z,20.20
2023-03-06T12:36:29.607Z,16.50
2023-03-06T12:39:10.793Z,21.40
2023-03-06T12:42:22.603Z,18.90
2023-03-06T12:45:14.547Z,18.30
2023-03-06T12:47:51.376Z,18.10
2023-03-06T12:50:24.025Z,11.40
2023-03-06T12:52:53.798Z,16.30
2023-03-06T12:55:24.921Z,18.00
2023-03-06T12:57:54.056Z,18.80
2023-03-06T13:00:32.794Z,18.80
2023-03-06T13:03:45.880Z,14.60
2023-03-06T13:06:57.954Z,10.10
2023-03-06T13:10:02.058Z,13.30
2023-03-06T13:12:47.349Z,13.50
2023-03-06T13:15:33.033Z,13.00
2023-03-06T13:18:00.204Z,19.20
2023-03-06T13:20:35.171Z,19.60
2023-03-06T13:23:30.549Z,14.20
2023-03-06T13:25:58.741Z,13.70
2023-03-06T13:28:54.968Z,15.60
2023-03-06T13:31:33.756Z,9.50
2023-03-06T13:34:05.940Z,12.90
2023-03-06T13:36:34.401Z,17.00
2023-03-06T13:39:11.916Z,16.80
2023-03-06T13:41:54.030Z,14.30
2023-03-06T13:44:23.583Z,12.80
2023-03-06T13:47:25.482Z,15.30
2023-03-06T13:49:52.372Z,10.20
2023-03-06T13:52:29.908Z,12.60
2023-03-06T13:55:02.731Z,14.30
2023-03-06T13:57:55.406Z,17.50
2023-03-06T14:00:36.998Z,13.70
2023-03-06T14:03:33.856Z,13.70
2023-03-06T14:06:00.691Z,9.30
2023-03-06T14:08:34.322Z,10.80
2023-03-06T14:11:06.017Z,12.30
2023-03-06T14:13:45.536Z,9.40
2023-03-06T14:16:21.668Z,11.00
2023-03-06T14:18:50.630Z,11.40
2023-03-06T14:21:42.232Z,14.20
2023-03-06T14:24:35.328Z,14.30
2023-03-06T14:27:02.095Z,12.70
2023-03-06T14:29:30.238Z,13.30
2023-03-06T14:31:59.219Z,12.90
2023-03-06T14:34:28.892Z,14.20
2023-03-06T14:37:00.009Z,12.00
2023-03-06T14:39:46.549Z,11.30
2023-03-06T14:42:16.340Z,11.90
2023-03-06T14:44:43.519Z,7.70
2023-03-06T14:47:32.182Z,11.70
2023-03-06T14:50:29.152Z,15.70
2023-03-06T14:53:04.313Z,15.20
2023-03-06T14:55:34.985Z,15.70
2023-03-06T14:58:12.047Z,10.70
2023-03-06T15:00:44.015Z,12.30
2023-03-06T15:03:18.202Z,13.10
2023-03-06T15:06:07.013Z,12.60
2023-03-06T15:08:39.383Z,13.30
2023-03-06T15:11:07.485Z,13.00
2023-03-06T15:13:35.613Z,12.20
2023-03-06T15:16:09.226Z,9.10
2023-03-06T15:19:03.552Z,13.40
2023-03-06T15:21:38.483Z,12.40
2023-03-06T15:24:31.212Z,14.00
2023-03-06T15:27:02.102Z,10.00
2023-03-06T15:29:28.948Z,12.90
2023-03-06T15:32:33.617Z,14.00
2023-03-06T15:35:27.559Z,12.10
2023-03-06T15:37:54.868Z,15.30
2023-03-06T15:40:24.401Z,15.50
2023-03-06T15:42:51.135Z,10.90
2023-03-06T15:45:23.076Z,11.40
2023-03-06T15:50:22.416Z,10.10
2023-03-06T15:52:50.170Z,14.10
2023-03-06T15:55:20.129Z,8.10
2023-03-06T15:57:59.879Z,13.70
2023-03-06T16:00:29.454Z,13.20
2023-03-06T16:02:57.600Z,13.00
2023-03-06T16:05:25.966Z,13.90
2023-03-06T16:07:52.893Z,10.90
2023-03-06T16:10:22.613Z,12.40
2023-03-06T16:12:56.115Z,12.30
2023-03-06T16:15:28.948Z,10.00
2023-03-06T16:17:59.945Z,11.30
2023-03-06T16:20:28.869Z,9.80
2023-03-06T16:22:55.904Z,9.40
2023-03-06T16:25:26.370Z,10.90
2023-03-06T16:27:59.784Z,10.80
2023-03-06T16:30:29.835Z,11.80
2023-03-06T16:32:57.338Z,11.10
2023-03-06T16:35:24.503Z,11.30
2023-03-06T16:37:51.589Z,11.30
2023-03-06T16:40:27.080Z,11.80
2023-03-06T16:42:55.092Z,12.90
2023-03-06T16:45:23.338Z,13.50
2023-03-06T16:47:50.603Z,12.50
2023-03-06T16:50:25.968Z,12.70
2023-03-06T16:52:54.612Z,13.30
2023-03-06T16:55:23.462Z,11.40
2023-03-06T16:57:50.389Z,11.20
2023-03-06T17:00:18.811Z,12.30
2023-03-06T17:02:48.850Z,9.90
2023-03-06T17:05:15.681Z,11.80
2023-03-06T17:07:42.476Z,11.00
2023-03-06T17:10:12.249Z,10.60
2023-03-06T17:12:39.320Z,9.90
2023-03-06T17:15:07.705Z,9.30
2023-03-06T17:17:34.832Z,9.90
2023-03-06T17:20:02.332Z,10.00
2023-03-06T17:22:28.978Z,9.80
2023-03-06T17:24:55.576Z,9.40
2023-03-06T17:27:23.139Z,10.70
2023-03-06T17:29:49.962Z,10.70
2023-03-06T17:32:16.573Z,12.10
2023-03-06T17:34:43.278Z,13.00
2023-03-06T17:37:09.907Z,11.30
2023-03-06T17:39:38.859Z,10.40
2023-03-06T17:42:06.682Z,10.00
2023-03-06T17:44:34.579Z,10.30
2023-03-06T17:47:02.166Z,12.80
2023-03-06T17:49:28.833Z,11.30
2023-03-06T17:51:58.098Z,11.30
2023-03-06T17:54:30.021Z,11.80
2023-03-06T17:57:01.087Z,11.90
2023-03-06T17:59:28.656Z,11.20
2023-03-06T18:01:59.422Z,11.60
2023-03-06T18:04:27.381Z,12.20
2023-03-06T18:06:54.116Z,11.10
2023-03-06T18:09:20.812Z,11.70
2023-03-06T18:11:47.462Z,10.50
2023-03-06T18:14:14.221Z,10.90
2023-03-06T18:16:40.937Z,11.90
2023-03-06T18:19:11.152Z,13.30
2023-03-06T18:21:39.146Z,11.70
2023-03-06T18:24:06.165Z,11.80
2023-03-06T18:26:32.812Z,11.20
2023-03-06T18:29:03.798Z,11.30
2023-03-06T18:31:34.717Z,10.60
2023-03-06T18:34:08.630Z,10.20
2023-03-06T18:36:35.820Z,11.40
2023-03-06T18:39:05.212Z,11.50
2023-03-06T18:41:32.445Z,11.50
2023-03-06T18:44:00.853Z,12.70
2023-03-06T18:46:33.137Z,11.30
2023-03-06T18:48:59.904Z,11.90
2023-03-06T18:51:27.578Z,11.20
2023-03-06T18:53:58.229Z,11.40
2023-03-06T18:56:25.130Z,10.90
2023-03-06T18:58:52.936Z,12.40
2023-03-06T19:01:21.030Z,12.10
2023-03-06T19:03:48.234Z,11.00
2023-03-06T19:06:17.069Z,12.90
2023-03-06T19:08:44.196Z,13.50
2023-03-06T19:11:16.785Z,11.40
2023-03-06T19:13:44.826Z,10.70
2023-03-06T19:16:20.066Z,11.60
2023-03-06T19:18:46.752Z,10.90
2023-03-06T19:21:15.902Z,11.70
2023-03-06T19:23:42.907Z,12.00
2023-03-06T19:26:10.138Z,11.90
2023-03-06T19:28:38.422Z,13.10
2023-03-06T19:31:25.699Z,13.30
2023-03-06T19:33:54.141Z,13.20
2023-03-06T19:36:26.883Z,13.10
2023-03-06T19:38:57.195Z,13.50
2023-03-06T19:41:24.543Z,13.30
2023-03-06T19:43:53.823Z,12.70
2023-03-06T19:46:21.867Z,14.40
2023-03-06T19:48:53.461Z,13.20
2023-03-06T19:51:20.353Z,13.90
2023-03-06T19:53:47.096Z,12.30
2023-03-06T19:56:18.576Z,12.70
2023-03-06T19:58:46.738Z,11.80
2023-03-06T20:01:19.421Z,10.40
2023-03-06T20:03:46.286Z,12.60
2023-03-06T20:06:16.017Z,12.20
2023-03-06T20:08:43.558Z,13.40
2023-03-06T20:11:24.415Z,12.90
2023-03-06T20:13:51.776Z,12.10
2023-03-06T20:16:19.427Z,12.80
2023-03-06T20:18:46.703Z,12.90
2023-03-06T20:21:13.797Z,12.30
2023-03-06T20:23:41.579Z,14.80
2023-03-06T20:26:12.088Z,13.50
2023-03-06T20:28:40.599Z,12.60
2023-03-06T20:31:13.593Z,13.50
2023-03-06T20:33:40.369Z,11.70
2023-03-06T20:36:22.133Z,13.50
2023-03-06T20:38:49.730Z,13.00
2023-03-06T20:41:16.972Z,11.70
2023-03-06T20:43:43.880Z,12.20
2023-03-06T20:46:12.366Z,14.10
2023-03-06T20:48:40.155Z,12.80
2023-03-06T20:51:14.885Z,13.10
2023-03-06T20:53:41.595Z,12.50
2023-03-06T20:56:12.796Z,12.00
2023-03-06T20:58:39.523Z,13.20
2023-03-06T21:01:06.449Z,12.20
2023-03-06T21:03:33.146Z,13.70
2023-03-06T21:05:59.877Z,13.60
2023-03-06T21:08:26.532Z,11.50
2023-03-06T21:10:53.166Z,12.60
2023-03-06T21:13:19.836Z,12.30
2023-03-06T21:15:47.728Z,12.00
2023-03-06T21:18:14.757Z,12.10
2023-03-06T21:20:42.363Z,11.60
2023-03-06T21:23:09.176Z,13.10
2023-03-06T21:25:36.024Z,12.10
2023-03-06T21:28:02.965Z,12.00
2023-03-06T21:30:30.538Z,13.20
2023-03-06T21:32:57.245Z,13.20
2023-03-06T21:35:23.965Z,13.10
2023-03-06T21:37:50.673Z,11.70
2023-03-06T21:40:17.436Z,12.90
2023-03-06T21:42:44.064Z,11.70
2023-03-06T21:45:12.563Z,12.00
2023-03-06T21:47:41.097Z,13.00
2023-03-06T21:50:11.329Z,12.60
2023-03-06T21:52:37.941Z,12.40
2023-03-06T21:55:05.239Z,12.00
2023-03-06T21:57:32.324Z,11.80
2023-03-06T21:59:58.999Z,13.60
2023-03-06T22:02:25.644Z,13.80
2023-03-06T22:04:52.793Z,12.90
2023-03-06T22:07:20.196Z,14.50
2023-03-06T22:09:47.272Z,11.80
2023-03-06T22:12:13.965Z,13.20
2023-03-06T22:14:43.550Z,13.80
2023-03-06T22:17:10.284Z,12.70
2023-03-06T22:19:37.010Z,10.60
2023-03-06T22:22:04.130Z,12.80
2023-03-06T22:24:32.024Z,11.60
2023-03-06T22:26:58.656Z,13.00
2023-03-06T22:29:28.288Z,13.30
2023-03-06T22:31:54.970Z,13.30
2023-03-06T22:34:21.744Z,13.60
2023-03-06T22:36:48.500Z,12.90
2023-03-06T22:39:15.118Z,12.20
2023-03-06T22:41:44.766Z,12.50
2023-03-06T22:44:17.664Z,12.70
2023-03-06T22:46:45.001Z,12.90
2023-03-06T22:49:13.419Z,13.50
2023-03-06T22:51:40.405Z,12.40
2023-03-06T22:54:07.671Z,11.40
2023-03-06T22:56:34.766Z,13.70
2023-03-06T22:59:01.808Z,13.50
2023-03-06T23:01:31.905Z,13.20
2023-03-06T23:04:01.418Z,12.60
2023-03-06T23:06:36.482Z,12.10
2023-03-06T23:09:11.999Z,12.60
2023-03-06T23:11:57.089Z,12.80
2023-03-06T23:14:42.401Z,14.00
2023-03-06T23:17:28.245Z,10.20
2023-03-06T23:20:13.757Z,12.70
2023-03-06T23:22:59.441Z,12.20
2023-03-06T23:25:41.951Z,12.40
2023-03-06T23:28:08.543Z,11.80
2023-03-06T23:30:35.267Z,13.40
2023-03-06T23:33:01.982Z,13.50
2023-03-06T23:35:28.648Z,11.50
2023-03-06T23:37:55.378Z,12.50
2023-03-06T23:40:22.402Z,13.20
2023-03-06T23:42:49.057Z,11.80
2023-03-06T23:45:16.397Z,11.90
2023-03-06T23:47:43.072Z,12.00
2023-03-06T23:50:10.682Z,11.80
2023-03-06T23:52:38.423Z,12.40
2023-03-06T23:55:05.913Z,12.10
2023-03-06T23:57:33.186Z,13.20
2023-03-06T23:59:59.813Z,12.10
